sensor_id;sensor_type;location;lat;lon;timestamp;P1;durP1;ratioP1;P2;durP2;ratioP2
10410;SDS011;5251;52.112;8.606;2023-09-19T00:01:20;3.35;;;2.15;;
10410;SDS011;5251;52.112;8.606;2023-09-19T00:03:45;3.63;;;2.25;;
10410;SDS011;5251;52.112;8.606;2023-09-19T00:06:11;3.72;;;2.15;;
10410;SDS011;5251;52.112;8.606;2023-09-19T00:08:40;2.70;;;2.20;;
10410;SDS011;5251;52.112;8.606;2023-09-19T00:11:09;2.80;;;2.50;;
10410;SDS011;5251;52.112;8.606;2023-09-19T00:13:35;3.97;;;2.50;;
10410;SDS011;5251;52.112;8.606;2023-09-19T00:16:01;3.00;;;2.50;;
10410;SDS011;5251;52.112;8.606;2023-09-19T00:18:35;5.35;;;2.70;;
10410;SDS011;5251;52.112;8.606;2023-09-19T00:21:01;4.40;;;2.63;;
10410;SDS011;5251;52.112;8.606;2023-09-19T00:23:29;4.93;;;2.92;;
10410;SDS011;5251;52.112;8.606;2023-09-19T00:25:58;4.53;;;2.58;;
10410;SDS011;5251;52.112;8.606;2023-09-19T00:28:24;4.32;;;2.70;;
10410;SDS011;5251;52.112;8.606;2023-09-19T00:30:50;4.70;;;2.80;;
10410;SDS011;5251;52.112;8.606;2023-09-19T00:33:15;5.90;;;2.53;;
10410;SDS011;5251;52.112;8.606;2023-09-19T00:36:14;3.63;;;3.05;;
10410;SDS011;5251;52.112;8.606;2023-09-19T00:38:33;4.15;;;2.90;;
10410;SDS011;5251;52.112;8.606;2023-09-19T00:40:58;3.70;;;2.80;;
10410;SDS011;5251;52.112;8.606;2023-09-19T00:43:24;6.72;;;3.00;;
10410;SDS011;5251;52.112;8.606;2023-09-19T00:45:52;5.05;;;2.83;;
10410;SDS011;5251;52.112;8.606;2023-09-19T00:48:20;5.07;;;2.65;;
10410;SDS011;5251;52.112;8.606;2023-09-19T00:50:46;6.25;;;2.83;;
10410;SDS011;5251;52.112;8.606;2023-09-19T00:53:14;3.63;;;2.67;;
10410;SDS011;5251;52.112;8.606;2023-09-19T00:55:45;5.15;;;3.00;;
10410;SDS011;5251;52.112;8.606;2023-09-19T00:58:12;5.43;;;2.85;;
10410;SDS011;5251;52.112;8.606;2023-09-19T01:00:37;3.85;;;2.60;;
10410;SDS011;5251;52.112;8.606;2023-09-19T01:03:03;5.78;;;3.20;;
10410;SDS011;5251;52.112;8.606;2023-09-19T01:05:31;4.82;;;2.78;;
10410;SDS011;5251;52.112;8.606;2023-09-19T01:07:58;6.60;;;3.10;;
10410;SDS011;5251;52.112;8.606;2023-09-19T01:10:24;5.63;;;2.88;;
10410;SDS011;5251;52.112;8.606;2023-09-19T01:23:23;5.78;;;3.10;;
10410;SDS011;5251;52.112;8.606;2023-09-19T01:26:23;3.85;;;2.53;;
10410;SDS011;5251;52.112;8.606;2023-09-19T01:29:16;4.15;;;2.55;;
10410;SDS011;5251;52.112;8.606;2023-09-19T01:31:46;5.45;;;2.40;;
10410;SDS011;5251;52.112;8.606;2023-09-19T01:34:14;5.82;;;2.58;;
10410;SDS011;5251;52.112;8.606;2023-09-19T01:36:39;5.18;;;2.78;;
10410;SDS011;5251;52.112;8.606;2023-09-19T01:39:05;4.13;;;2.88;;
10410;SDS011;5251;52.112;8.606;2023-09-19T01:41:47;4.70;;;2.70;;
10410;SDS011;5251;52.112;8.606;2023-09-19T01:44:28;8.43;;;2.88;;
10410;SDS011;5251;52.112;8.606;2023-09-19T01:47:32;5.80;;;2.65;;
10410;SDS011;5251;52.112;8.606;2023-09-19T01:53:14;6.90;;;3.15;;
10410;SDS011;5251;52.112;8.606;2023-09-19T01:55:55;5.53;;;2.50;;
10410;SDS011;5251;52.112;8.606;2023-09-19T01:58:41;5.53;;;2.60;;
10410;SDS011;5251;52.112;8.606;2023-09-19T02:01:14;7.28;;;2.97;;
10410;SDS011;5251;52.112;8.606;2023-09-19T02:03:44;5.43;;;2.28;;
10410;SDS011;5251;52.112;8.606;2023-09-19T02:06:15;9.70;;;2.83;;
10410;SDS011;5251;52.112;8.606;2023-09-19T02:08:43;4.97;;;2.60;;
10410;SDS011;5251;52.112;8.606;2023-09-19T02:11:10;4.75;;;2.30;;
10410;SDS011;5251;52.112;8.606;2023-09-19T02:13:39;5.28;;;2.53;;
10410;SDS011;5251;52.112;8.606;2023-09-19T02:16:06;7.15;;;2.75;;
10410;SDS011;5251;52.112;8.606;2023-09-19T02:18:34;5.30;;;2.38;;
10410;SDS011;5251;52.112;8.606;2023-09-19T02:21:00;4.97;;;2.47;;
10410;SDS011;5251;52.112;8.606;2023-09-19T02:23:26;3.28;;;2.20;;
10410;SDS011;5251;52.112;8.606;2023-09-19T02:25:56;5.85;;;2.50;;
10410;SDS011;5251;52.112;8.606;2023-09-19T02:28:31;5.75;;;2.40;;
10410;SDS011;5251;52.112;8.606;2023-09-19T02:30:57;7.05;;;3.03;;
10410;SDS011;5251;52.112;8.606;2023-09-19T02:33:23;5.68;;;2.03;;
10410;SDS011;5251;52.112;8.606;2023-09-19T02:35:49;9.65;;;2.67;;
10410;SDS011;5251;52.112;8.606;2023-09-19T02:38:15;6.00;;;3.17;;
10410;SDS011;5251;52.112;8.606;2023-09-19T02:40:43;5.53;;;2.75;;
10410;SDS011;5251;52.112;8.606;2023-09-19T02:43:09;3.88;;;2.35;;
10410;SDS011;5251;52.112;8.606;2023-09-19T02:45:34;9.27;;;3.10;;
10410;SDS011;5251;52.112;8.606;2023-09-19T02:48:00;5.18;;;2.65;;
10410;SDS011;5251;52.112;8.606;2023-09-19T02:50:27;9.85;;;3.08;;
10410;SDS011;5251;52.112;8.606;2023-09-19T02:52:52;8.65;;;3.15;;
10410;SDS011;5251;52.112;8.606;2023-09-19T02:55:18;7.30;;;2.80;;
10410;SDS011;5251;52.112;8.606;2023-09-19T02:57:47;3.97;;;2.47;;
10410;SDS011;5251;52.112;8.606;2023-09-19T03:00:13;9.05;;;2.85;;
10410;SDS011;5251;52.112;8.606;2023-09-19T03:02:39;6.25;;;3.00;;
10410;SDS011;5251;52.112;8.606;2023-09-19T03:05:06;6.90;;;3.00;;
10410;SDS011;5251;52.112;8.606;2023-09-19T03:07:32;6.22;;;2.83;;
10410;SDS011;5251;52.112;8.606;2023-09-19T03:09:58;6.40;;;2.90;;
10410;SDS011;5251;52.112;8.606;2023-09-19T03:12:25;8.00;;;3.10;;
10410;SDS011;5251;52.112;8.606;2023-09-19T03:14:51;7.28;;;2.92;;
10410;SDS011;5251;52.112;8.606;2023-09-19T03:17:16;7.40;;;2.83;;
10410;SDS011;5251;52.112;8.606;2023-09-19T03:19:44;5.82;;;2.78;;
10410;SDS011;5251;52.112;8.606;2023-09-19T03:22:10;7.88;;;3.35;;
10410;SDS011;5251;52.112;8.606;2023-09-19T03:24:36;4.50;;;2.58;;
10410;SDS011;5251;52.112;8.606;2023-09-19T03:27:02;6.80;;;3.17;;
10410;SDS011;5251;52.112;8.606;2023-09-19T03:29:28;3.72;;;2.55;;
10410;SDS011;5251;52.112;8.606;2023-09-19T03:31:54;5.38;;;3.42;;
10410;SDS011;5251;52.112;8.606;2023-09-19T03:34:19;5.20;;;3.25;;
10410;SDS011;5251;52.112;8.606;2023-09-19T03:36:45;4.13;;;2.83;;
10410;SDS011;5251;52.112;8.606;2023-09-19T03:39:11;7.63;;;3.20;;
10410;SDS011;5251;52.112;8.606;2023-09-19T03:41:37;7.32;;;2.95;;
10410;SDS011;5251;52.112;8.606;2023-09-19T03:44:02;7.38;;;3.13;;
10410;SDS011;5251;52.112;8.606;2023-09-19T03:46:28;4.38;;;3.00;;
10410;SDS011;5251;52.112;8.606;2023-09-19T03:48:55;4.65;;;2.75;;
10410;SDS011;5251;52.112;8.606;2023-09-19T03:51:20;5.85;;;2.90;;
10410;SDS011;5251;52.112;8.606;2023-09-19T03:53:46;7.43;;;3.28;;
10410;SDS011;5251;52.112;8.606;2023-09-19T03:56:14;5.93;;;3.00;;
10410;SDS011;5251;52.112;8.606;2023-09-19T03:58:39;6.72;;;2.90;;
10410;SDS011;5251;52.112;8.606;2023-09-19T04:01:05;5.68;;;2.60;;
10410;SDS011;5251;52.112;8.606;2023-09-19T04:03:34;8.27;;;3.28;;
10410;SDS011;5251;52.112;8.606;2023-09-19T04:06:10;8.93;;;3.03;;
10410;SDS011;5251;52.112;8.606;2023-09-19T04:08:36;6.40;;;2.65;;
10410;SDS011;5251;52.112;8.606;2023-09-19T04:11:01;6.60;;;2.60;;
10410;SDS011;5251;52.112;8.606;2023-09-19T04:13:27;6.43;;;2.70;;
10410;SDS011;5251;52.112;8.606;2023-09-19T04:15:53;6.95;;;2.83;;
10410;SDS011;5251;52.112;8.606;2023-09-19T04:18:18;5.10;;;2.47;;
10410;SDS011;5251;52.112;8.606;2023-09-19T04:20:52;9.77;;;3.17;;
10410;SDS011;5251;52.112;8.606;2023-09-19T04:23:18;4.93;;;2.20;;
10410;SDS011;5251;52.112;8.606;2023-09-19T04:25:47;6.57;;;2.17;;
10410;SDS011;5251;52.112;8.606;2023-09-19T04:28:13;6.57;;;2.45;;
10410;SDS011;5251;52.112;8.606;2023-09-19T04:30:39;6.22;;;2.40;;
10410;SDS011;5251;52.112;8.606;2023-09-19T04:33:07;6.00;;;2.50;;
10410;SDS011;5251;52.112;8.606;2023-09-19T04:35:33;6.60;;;2.30;;
10410;SDS011;5251;52.112;8.606;2023-09-19T04:38:00;7.38;;;2.85;;
10410;SDS011;5251;52.112;8.606;2023-09-19T04:40:26;7.45;;;2.65;;
10410;SDS011;5251;52.112;8.606;2023-09-19T04:42:55;6.28;;;2.03;;
10410;SDS011;5251;52.112;8.606;2023-09-19T04:45:22;4.95;;;2.25;;
10410;SDS011;5251;52.112;8.606;2023-09-19T04:47:48;5.75;;;2.10;;
10410;SDS011;5251;52.112;8.606;2023-09-19T04:50:13;7.03;;;2.65;;
10410;SDS011;5251;52.112;8.606;2023-09-19T04:52:40;6.47;;;2.70;;
10410;SDS011;5251;52.112;8.606;2023-09-19T04:55:13;6.43;;;2.25;;
10410;SDS011;5251;52.112;8.606;2023-09-19T04:57:41;9.70;;;2.63;;
10410;SDS011;5251;52.112;8.606;2023-09-19T05:00:12;6.32;;;2.33;;
10410;SDS011;5251;52.112;8.606;2023-09-19T05:02:51;5.25;;;2.33;;
10410;SDS011;5251;52.112;8.606;2023-09-19T05:05:20;11.98;;;2.50;;
10410;SDS011;5251;52.112;8.606;2023-09-19T05:07:47;5.90;;;2.17;;
10410;SDS011;5251;52.112;8.606;2023-09-19T05:10:13;9.00;;;2.50;;
10410;SDS011;5251;52.112;8.606;2023-09-19T05:12:39;6.38;;;2.15;;
10410;SDS011;5251;52.112;8.606;2023-09-19T05:15:06;4.80;;;2.38;;
10410;SDS011;5251;52.112;8.606;2023-09-19T05:17:32;5.85;;;2.00;;
10410;SDS011;5251;52.112;8.606;2023-09-19T05:19:59;6.60;;;2.38;;
10410;SDS011;5251;52.112;8.606;2023-09-19T05:22:31;5.75;;;2.15;;
10410;SDS011;5251;52.112;8.606;2023-09-19T05:24:57;5.40;;;2.13;;
10410;SDS011;5251;52.112;8.606;2023-09-19T05:27:23;4.88;;;2.22;;
10410;SDS011;5251;52.112;8.606;2023-09-19T05:29:49;5.50;;;2.25;;
10410;SDS011;5251;52.112;8.606;2023-09-19T05:32:18;6.75;;;2.53;;
10410;SDS011;5251;52.112;8.606;2023-09-19T05:34:44;6.72;;;2.17;;
10410;SDS011;5251;52.112;8.606;2023-09-19T05:37:10;10.48;;;3.13;;
10410;SDS011;5251;52.112;8.606;2023-09-19T05:39:36;7.80;;;2.35;;
10410;SDS011;5251;52.112;8.606;2023-09-19T05:42:02;6.35;;;2.25;;
10410;SDS011;5251;52.112;8.606;2023-09-19T05:44:28;4.55;;;2.13;;
10410;SDS011;5251;52.112;8.606;2023-09-19T05:46:54;9.60;;;2.90;;
10410;SDS011;5251;52.112;8.606;2023-09-19T05:49:21;6.85;;;2.13;;
10410;SDS011;5251;52.112;8.606;2023-09-19T05:51:47;5.72;;;2.10;;
10410;SDS011;5251;52.112;8.606;2023-09-19T05:54:13;5.82;;;2.40;;
10410;SDS011;5251;52.112;8.606;2023-09-19T05:56:38;5.05;;;2.05;;
10410;SDS011;5251;52.112;8.606;2023-09-19T05:59:04;9.55;;;2.55;;
10410;SDS011;5251;52.112;8.606;2023-09-19T06:01:30;5.20;;;2.17;;
10410;SDS011;5251;52.112;8.606;2023-09-19T06:03:57;5.35;;;2.25;;
10410;SDS011;5251;52.112;8.606;2023-09-19T06:06:25;8.82;;;2.67;;
10410;SDS011;5251;52.112;8.606;2023-09-19T06:08:51;6.68;;;2.25;;
10410;SDS011;5251;52.112;8.606;2023-09-19T06:11:16;8.32;;;2.20;;
10410;SDS011;5251;52.112;8.606;2023-09-19T06:13:45;6.82;;;2.55;;
10410;SDS011;5251;52.112;8.606;2023-09-19T06:16:12;7.07;;;2.20;;
10410;SDS011;5251;52.112;8.606;2023-09-19T06:18:38;6.55;;;2.35;;
10410;SDS011;5251;52.112;8.606;2023-09-19T06:21:04;4.95;;;2.50;;
10410;SDS011;5251;52.112;8.606;2023-09-19T06:23:33;6.53;;;2.25;;
10410;SDS011;5251;52.112;8.606;2023-09-19T06:26:00;5.40;;;2.53;;
10410;SDS011;5251;52.112;8.606;2023-09-19T06:28:26;6.80;;;2.45;;
10410;SDS011;5251;52.112;8.606;2023-09-19T06:30:53;11.68;;;2.28;;
10410;SDS011;5251;52.112;8.606;2023-09-19T06:33:20;7.15;;;2.60;;
10410;SDS011;5251;52.112;8.606;2023-09-19T06:35:46;6.68;;;2.40;;
10410;SDS011;5251;52.112;8.606;2023-09-19T06:38:13;5.88;;;2.38;;
10410;SDS011;5251;52.112;8.606;2023-09-19T06:40:40;6.40;;;2.30;;
10410;SDS011;5251;52.112;8.606;2023-09-19T06:43:07;6.38;;;2.42;;
10410;SDS011;5251;52.112;8.606;2023-09-19T06:45:37;7.95;;;2.40;;
10410;SDS011;5251;52.112;8.606;2023-09-19T06:48:03;7.15;;;2.25;;
10410;SDS011;5251;52.112;8.606;2023-09-19T06:50:29;7.43;;;2.35;;
10410;SDS011;5251;52.112;8.606;2023-09-19T06:52:56;8.63;;;2.40;;
10410;SDS011;5251;52.112;8.606;2023-09-19T06:55:24;8.52;;;2.25;;
10410;SDS011;5251;52.112;8.606;2023-09-19T06:57:53;5.70;;;1.98;;
10410;SDS011;5251;52.112;8.606;2023-09-19T07:00:22;4.70;;;2.10;;
10410;SDS011;5251;52.112;8.606;2023-09-19T07:03:01;8.95;;;2.30;;
10410;SDS011;5251;52.112;8.606;2023-09-19T07:05:31;4.32;;;2.00;;
10410;SDS011;5251;52.112;8.606;2023-09-19T07:07:57;5.35;;;2.00;;
10410;SDS011;5251;52.112;8.606;2023-09-19T07:10:24;10.48;;;2.90;;
10410;SDS011;5251;52.112;8.606;2023-09-19T07:12:57;7.88;;;2.20;;
10410;SDS011;5251;52.112;8.606;2023-09-19T07:15:23;9.73;;;2.10;;
10410;SDS011;5251;52.112;8.606;2023-09-19T07:17:53;5.05;;;1.95;;
10410;SDS011;5251;52.112;8.606;2023-09-19T07:20:20;5.22;;;2.03;;
10410;SDS011;5251;52.112;8.606;2023-09-19T07:22:45;5.20;;;2.30;;
10410;SDS011;5251;52.112;8.606;2023-09-19T07:25:13;6.63;;;2.40;;
10410;SDS011;5251;52.112;8.606;2023-09-19T07:27:40;4.80;;;2.35;;
10410;SDS011;5251;52.112;8.606;2023-09-19T07:30:06;6.88;;;2.33;;
10410;SDS011;5251;52.112;8.606;2023-09-19T07:32:33;5.45;;;2.00;;
10410;SDS011;5251;52.112;8.606;2023-09-19T07:35:02;5.47;;;2.08;;
10410;SDS011;5251;52.112;8.606;2023-09-19T07:37:29;6.97;;;2.13;;
10410;SDS011;5251;52.112;8.606;2023-09-19T07:39:58;5.70;;;1.88;;
10410;SDS011;5251;52.112;8.606;2023-09-19T07:42:24;5.43;;;1.83;;
10410;SDS011;5251;52.112;8.606;2023-09-19T07:44:50;5.97;;;1.80;;
10410;SDS011;5251;52.112;8.606;2023-09-19T07:47:16;5.18;;;1.80;;
10410;SDS011;5251;52.112;8.606;2023-09-19T07:49:42;7.63;;;2.30;;
10410;SDS011;5251;52.112;8.606;2023-09-19T07:52:08;5.22;;;2.10;;
10410;SDS011;5251;52.112;8.606;2023-09-19T07:54:35;5.53;;;2.30;;
10410;SDS011;5251;52.112;8.606;2023-09-19T07:57:01;5.32;;;1.90;;
10410;SDS011;5251;52.112;8.606;2023-09-19T07:59:27;6.03;;;2.50;;
10410;SDS011;5251;52.112;8.606;2023-09-19T08:01:53;4.40;;;1.98;;
10410;SDS011;5251;52.112;8.606;2023-09-19T08:04:19;5.93;;;2.15;;
10410;SDS011;5251;52.112;8.606;2023-09-19T08:06:44;5.75;;;2.00;;
10410;SDS011;5251;52.112;8.606;2023-09-19T08:09:10;7.03;;;2.42;;
10410;SDS011;5251;52.112;8.606;2023-09-19T08:11:37;5.10;;;2.15;;
10410;SDS011;5251;52.112;8.606;2023-09-19T08:14:04;6.75;;;1.98;;
10410;SDS011;5251;52.112;8.606;2023-09-19T08:16:31;11.43;;;3.00;;
10410;SDS011;5251;52.112;8.606;2023-09-19T08:18:56;5.85;;;2.22;;
10410;SDS011;5251;52.112;8.606;2023-09-19T08:21:22;6.25;;;2.05;;
10410;SDS011;5251;52.112;8.606;2023-09-19T08:23:49;4.88;;;2.05;;
10410;SDS011;5251;52.112;8.606;2023-09-19T08:26:15;5.72;;;2.20;;
10410;SDS011;5251;52.112;8.606;2023-09-19T08:28:40;7.18;;;2.75;;
10410;SDS011;5251;52.112;8.606;2023-09-19T08:31:07;4.45;;;2.00;;
10410;SDS011;5251;52.112;8.606;2023-09-19T08:33:34;6.82;;;2.10;;
10410;SDS011;5251;52.112;8.606;2023-09-19T08:36:00;3.85;;;1.92;;
10410;SDS011;5251;52.112;8.606;2023-09-19T08:38:26;4.30;;;2.33;;
10410;SDS011;5251;52.112;8.606;2023-09-19T08:40:59;5.20;;;2.13;;
10410;SDS011;5251;52.112;8.606;2023-09-19T08:43:25;6.18;;;2.40;;
10410;SDS011;5251;52.112;8.606;2023-09-19T08:45:53;7.70;;;2.47;;
10410;SDS011;5251;52.112;8.606;2023-09-19T08:48:37;7.25;;;2.05;;
10410;SDS011;5251;52.112;8.606;2023-09-19T08:54:06;4.82;;;2.00;;
10410;SDS011;5251;52.112;8.606;2023-09-19T08:56:32;4.18;;;2.20;;
10410;SDS011;5251;52.112;8.606;2023-09-19T08:59:05;5.72;;;2.58;;
10410;SDS011;5251;52.112;8.606;2023-09-19T09:01:36;7.15;;;2.40;;
10410;SDS011;5251;52.112;8.606;2023-09-19T09:04:02;6.50;;;2.25;;
10410;SDS011;5251;52.112;8.606;2023-09-19T09:06:34;7.45;;;2.55;;
10410;SDS011;5251;52.112;8.606;2023-09-19T09:08:59;5.55;;;2.35;;
10410;SDS011;5251;52.112;8.606;2023-09-19T09:11:25;6.93;;;2.55;;
10410;SDS011;5251;52.112;8.606;2023-09-19T09:13:53;4.38;;;2.25;;
10410;SDS011;5251;52.112;8.606;2023-09-19T09:16:18;6.75;;;2.15;;
10410;SDS011;5251;52.112;8.606;2023-09-19T09:18:44;5.88;;;2.28;;
10410;SDS011;5251;52.112;8.606;2023-09-19T09:21:17;7.03;;;2.92;;
10410;SDS011;5251;52.112;8.606;2023-09-19T09:23:43;7.55;;;2.50;;
10410;SDS011;5251;52.112;8.606;2023-09-19T09:26:09;5.30;;;2.53;;
10410;SDS011;5251;52.112;8.606;2023-09-19T09:28:35;8.02;;;3.15;;
10410;SDS011;5251;52.112;8.606;2023-09-19T09:31:04;6.60;;;2.50;;
10410;SDS011;5251;52.112;8.606;2023-09-19T09:33:34;7.07;;;2.50;;
10410;SDS011;5251;52.112;8.606;2023-09-19T09:36:03;5.88;;;2.80;;
10410;SDS011;5251;52.112;8.606;2023-09-19T09:38:42;9.43;;;2.92;;
10410;SDS011;5251;52.112;8.606;2023-09-19T09:41:09;8.73;;;2.72;;
10410;SDS011;5251;52.112;8.606;2023-09-19T09:43:41;6.57;;;2.58;;
10410;SDS011;5251;52.112;8.606;2023-09-19T09:49:00;5.13;;;2.40;;
10410;SDS011;5251;52.112;8.606;2023-09-19T09:52:01;5.82;;;2.95;;
10410;SDS011;5251;52.112;8.606;2023-09-19T09:54:26;8.73;;;3.53;;
10410;SDS011;5251;52.112;8.606;2023-09-19T09:57:06;7.00;;;2.92;;
10410;SDS011;5251;52.112;8.606;2023-09-19T09:59:45;8.45;;;2.38;;
10410;SDS011;5251;52.112;8.606;2023-09-19T10:02:12;5.32;;;2.25;;
10410;SDS011;5251;52.112;8.606;2023-09-19T10:05:03;7.55;;;2.75;;
10410;SDS011;5251;52.112;8.606;2023-09-19T10:07:46;6.13;;;2.45;;
10410;SDS011;5251;52.112;8.606;2023-09-19T10:10:28;5.50;;;2.30;;
10410;SDS011;5251;52.112;8.606;2023-09-19T10:13:05;7.05;;;2.30;;
10410;SDS011;5251;52.112;8.606;2023-09-19T10:15:33;6.10;;;2.15;;
10410;SDS011;5251;52.112;8.606;2023-09-19T10:18:04;5.32;;;2.55;;
10410;SDS011;5251;52.112;8.606;2023-09-19T10:20:30;6.60;;;2.33;;
10410;SDS011;5251;52.112;8.606;2023-09-19T10:23:01;5.97;;;2.22;;
10410;SDS011;5251;52.112;8.606;2023-09-19T10:25:34;5.05;;;2.30;;
10410;SDS011;5251;52.112;8.606;2023-09-19T10:28:02;7.95;;;2.35;;
10410;SDS011;5251;52.112;8.606;2023-09-19T10:30:35;6.85;;;2.58;;
10410;SDS011;5251;52.112;8.606;2023-09-19T10:33:04;6.22;;;2.33;;
10410;SDS011;5251;52.112;8.606;2023-09-19T10:35:32;4.97;;;2.10;;
10410;SDS011;5251;52.112;8.606;2023-09-19T10:38:02;5.85;;;2.33;;
10410;SDS011;5251;52.112;8.606;2023-09-19T10:40:29;4.97;;;2.10;;
10410;SDS011;5251;52.112;8.606;2023-09-19T10:43:01;5.15;;;2.10;;
10410;SDS011;5251;52.112;8.606;2023-09-19T10:45:34;3.60;;;2.08;;
10410;SDS011;5251;52.112;8.606;2023-09-19T10:48:01;5.72;;;2.35;;
10410;SDS011;5251;52.112;8.606;2023-09-19T10:53:26;5.95;;;2.53;;
10410;SDS011;5251;52.112;8.606;2023-09-19T10:55:56;7.55;;;2.30;;
10410;SDS011;5251;52.112;8.606;2023-09-19T10:58:30;7.15;;;2.30;;
10410;SDS011;5251;52.112;8.606;2023-09-19T11:00:59;4.70;;;2.33;;
10410;SDS011;5251;52.112;8.606;2023-09-19T11:03:30;4.55;;;2.17;;
10410;SDS011;5251;52.112;8.606;2023-09-19T11:06:00;3.50;;;2.15;;
10410;SDS011;5251;52.112;8.606;2023-09-19T11:08:51;4.50;;;2.50;;
10410;SDS011;5251;52.112;8.606;2023-09-19T11:30:45;4.47;;;1.95;;
10410;SDS011;5251;52.112;8.606;2023-09-19T11:33:19;6.32;;;2.28;;
10410;SDS011;5251;52.112;8.606;2023-09-19T11:36:14;5.15;;;2.67;;
10410;SDS011;5251;52.112;8.606;2023-09-19T11:43:52;4.70;;;2.10;;
10410;SDS011;5251;52.112;8.606;2023-09-19T11:46:24;4.70;;;2.03;;
10410;SDS011;5251;52.112;8.606;2023-09-19T11:48:50;6.97;;;1.83;;
10410;SDS011;5251;52.112;8.606;2023-09-19T11:53:58;4.50;;;1.80;;
10410;SDS011;5251;52.112;8.606;2023-09-19T11:56:26;5.10;;;1.85;;
10410;SDS011;5251;52.112;8.606;2023-09-19T11:58:53;4.57;;;1.88;;
10410;SDS011;5251;52.112;8.606;2023-09-19T12:01:29;3.75;;;1.80;;
10410;SDS011;5251;52.112;8.606;2023-09-19T12:04:00;4.50;;;2.30;;
10410;SDS011;5251;52.112;8.606;2023-09-19T12:06:29;4.88;;;2.00;;
10410;SDS011;5251;52.112;8.606;2023-09-19T12:08:57;4.45;;;1.85;;
10410;SDS011;5251;52.112;8.606;2023-09-19T12:11:29;7.30;;;2.22;;
10410;SDS011;5251;52.112;8.606;2023-09-19T12:13:58;5.28;;;1.90;;
10410;SDS011;5251;52.112;8.606;2023-09-19T12:16:26;6.85;;;2.20;;
10410;SDS011;5251;52.112;8.606;2023-09-19T12:18:55;4.57;;;2.25;;
10410;SDS011;5251;52.112;8.606;2023-09-19T12:21:27;5.78;;;2.15;;
10410;SDS011;5251;52.112;8.606;2023-09-19T12:23:57;5.72;;;2.25;;
10410;SDS011;5251;52.112;8.606;2023-09-19T12:26:40;5.25;;;2.00;;
10410;SDS011;5251;52.112;8.606;2023-09-19T12:29:17;6.03;;;2.60;;
10410;SDS011;5251;52.112;8.606;2023-09-19T12:31:50;4.28;;;1.70;;
10410;SDS011;5251;52.112;8.606;2023-09-19T12:34:22;6.18;;;2.17;;
10410;SDS011;5251;52.112;8.606;2023-09-19T12:36:48;4.43;;;2.00;;
10410;SDS011;5251;52.112;8.606;2023-09-19T12:39:23;5.25;;;2.10;;
10410;SDS011;5251;52.112;8.606;2023-09-19T12:41:50;4.75;;;1.80;;
10410;SDS011;5251;52.112;8.606;2023-09-19T12:44:18;4.85;;;2.00;;
10410;SDS011;5251;52.112;8.606;2023-09-19T12:46:44;6.93;;;2.05;;
10410;SDS011;5251;52.112;8.606;2023-09-19T12:49:16;5.55;;;2.40;;
10410;SDS011;5251;52.112;8.606;2023-09-19T12:51:43;4.65;;;2.00;;
10410;SDS011;5251;52.112;8.606;2023-09-19T12:54:11;4.90;;;2.25;;
10410;SDS011;5251;52.112;8.606;2023-09-19T12:56:40;5.18;;;2.08;;
10410;SDS011;5251;52.112;8.606;2023-09-19T12:59:11;6.70;;;2.25;;
10410;SDS011;5251;52.112;8.606;2023-09-19T13:01:38;5.50;;;2.30;;
10410;SDS011;5251;52.112;8.606;2023-09-19T13:04:19;4.60;;;2.33;;
10410;SDS011;5251;52.112;8.606;2023-09-19T13:06:53;6.03;;;2.10;;
10410;SDS011;5251;52.112;8.606;2023-09-19T13:09:20;4.28;;;1.90;;
10410;SDS011;5251;52.112;8.606;2023-09-19T13:11:47;9.68;;;2.08;;
10410;SDS011;5251;52.112;8.606;2023-09-19T13:17:00;5.32;;;1.80;;
10410;SDS011;5251;52.112;8.606;2023-09-19T13:19:40;7.65;;;2.22;;
10410;SDS011;5251;52.112;8.606;2023-09-19T13:25:16;9.77;;;2.20;;
10410;SDS011;5251;52.112;8.606;2023-09-19T13:27:43;5.22;;;1.75;;
10410;SDS011;5251;52.112;8.606;2023-09-19T13:30:11;4.85;;;1.83;;
10410;SDS011;5251;52.112;8.606;2023-09-19T13:32:37;3.25;;;1.60;;
10410;SDS011;5251;52.112;8.606;2023-09-19T13:35:05;4.45;;;2.15;;
10410;SDS011;5251;52.112;8.606;2023-09-19T13:37:34;4.70;;;2.05;;
10410;SDS011;5251;52.112;8.606;2023-09-19T13:40:03;2.55;;;1.80;;
10410;SDS011;5251;52.112;8.606;2023-09-19T13:42:30;5.75;;;1.90;;
10410;SDS011;5251;52.112;8.606;2023-09-19T13:44:56;3.85;;;1.90;;
10410;SDS011;5251;52.112;8.606;2023-09-19T13:47:22;3.42;;;1.50;;
10410;SDS011;5251;52.112;8.606;2023-09-19T13:49:49;3.65;;;1.60;;
10410;SDS011;5251;52.112;8.606;2023-09-19T13:52:19;3.45;;;1.70;;
10410;SDS011;5251;52.112;8.606;2023-09-19T13:54:45;3.88;;;1.50;;
10410;SDS011;5251;52.112;8.606;2023-09-19T13:57:11;5.60;;;2.00;;
10410;SDS011;5251;52.112;8.606;2023-09-19T13:59:37;4.85;;;1.55;;
10410;SDS011;5251;52.112;8.606;2023-09-19T14:02:02;5.20;;;1.60;;
10410;SDS011;5251;52.112;8.606;2023-09-19T14:04:28;3.20;;;1.42;;
10410;SDS011;5251;52.112;8.606;2023-09-19T14:06:54;3.72;;;1.60;;
10410;SDS011;5251;52.112;8.606;2023-09-19T14:09:19;4.45;;;1.50;;
10410;SDS011;5251;52.112;8.606;2023-09-19T14:11:46;2.97;;;1.70;;
10410;SDS011;5251;52.112;8.606;2023-09-19T14:14:13;3.13;;;1.90;;
10410;SDS011;5251;52.112;8.606;2023-09-19T14:16:38;2.95;;;1.50;;
10410;SDS011;5251;52.112;8.606;2023-09-19T14:19:06;4.13;;;1.50;;
10410;SDS011;5251;52.112;8.606;2023-09-19T14:21:33;4.28;;;1.95;;
10410;SDS011;5251;52.112;8.606;2023-09-19T14:23:58;4.10;;;1.50;;
10410;SDS011;5251;52.112;8.606;2023-09-19T14:26:24;3.55;;;1.60;;
10410;SDS011;5251;52.112;8.606;2023-09-19T14:28:49;5.43;;;1.80;;
10410;SDS011;5251;52.112;8.606;2023-09-19T14:31:15;3.25;;;1.60;;
10410;SDS011;5251;52.112;8.606;2023-09-19T14:33:41;3.13;;;1.50;;
10410;SDS011;5251;52.112;8.606;2023-09-19T14:36:07;4.22;;;1.60;;
10410;SDS011;5251;52.112;8.606;2023-09-19T14:38:34;4.20;;;1.63;;
10410;SDS011;5251;52.112;8.606;2023-09-19T14:41:01;2.33;;;1.40;;
10410;SDS011;5251;52.112;8.606;2023-09-19T14:43:28;3.55;;;1.60;;
10410;SDS011;5251;52.112;8.606;2023-09-19T14:45:55;3.78;;;1.75;;
10410;SDS011;5251;52.112;8.606;2023-09-19T14:48:22;3.58;;;1.67;;
10410;SDS011;5251;52.112;8.606;2023-09-19T14:50:50;2.38;;;1.35;;
10410;SDS011;5251;52.112;8.606;2023-09-19T14:53:17;6.50;;;2.33;;
10410;SDS011;5251;52.112;8.606;2023-09-19T14:55:43;3.17;;;1.67;;
10410;SDS011;5251;52.112;8.606;2023-09-19T14:58:10;2.25;;;1.40;;
10410;SDS011;5251;52.112;8.606;2023-09-19T15:00:37;2.10;;;1.30;;
10410;SDS011;5251;52.112;8.606;2023-09-19T15:03:03;2.97;;;1.65;;
10410;SDS011;5251;52.112;8.606;2023-09-19T15:05:29;3.15;;;1.60;;
10410;SDS011;5251;52.112;8.606;2023-09-19T15:07:55;3.38;;;1.73;;
10410;SDS011;5251;52.112;8.606;2023-09-19T15:10:22;4.47;;;1.77;;
10410;SDS011;5251;52.112;8.606;2023-09-19T15:12:48;3.05;;;1.50;;
10410;SDS011;5251;52.112;8.606;2023-09-19T15:15:13;3.42;;;1.70;;
10410;SDS011;5251;52.112;8.606;2023-09-19T15:17:39;3.75;;;1.63;;
10410;SDS011;5251;52.112;8.606;2023-09-19T15:20:05;4.88;;;1.95;;
10410;SDS011;5251;52.112;8.606;2023-09-19T15:22:35;5.40;;;1.60;;
10410;SDS011;5251;52.112;8.606;2023-09-19T15:25:01;4.13;;;1.50;;
10410;SDS011;5251;52.112;8.606;2023-09-19T15:27:27;4.43;;;1.73;;
10410;SDS011;5251;52.112;8.606;2023-09-19T15:29:55;4.30;;;1.42;;
10410;SDS011;5251;52.112;8.606;2023-09-19T15:32:23;3.83;;;1.77;;
10410;SDS011;5251;52.112;8.606;2023-09-19T15:34:49;3.10;;;1.52;;
10410;SDS011;5251;52.112;8.606;2023-09-19T15:37:15;3.28;;;1.45;;
10410;SDS011;5251;52.112;8.606;2023-09-19T15:39:41;3.08;;;1.30;;
10410;SDS011;5251;52.112;8.606;2023-09-19T15:42:06;1.55;;;1.20;;
10410;SDS011;5251;52.112;8.606;2023-09-19T15:44:32;2.33;;;1.30;;
10410;SDS011;5251;52.112;8.606;2023-09-19T15:46:58;2.47;;;1.30;;
10410;SDS011;5251;52.112;8.606;2023-09-19T15:49:24;2.67;;;1.45;;
10410;SDS011;5251;52.112;8.606;2023-09-19T15:51:50;3.30;;;1.80;;
10410;SDS011;5251;52.112;8.606;2023-09-19T15:54:15;3.20;;;1.33;;
10410;SDS011;5251;52.112;8.606;2023-09-19T15:56:43;3.35;;;1.40;;
10410;SDS011;5251;52.112;8.606;2023-09-19T15:59:09;2.05;;;1.27;;
10410;SDS011;5251;52.112;8.606;2023-09-19T16:01:37;2.50;;;1.35;;
10410;SDS011;5251;52.112;8.606;2023-09-19T16:04:03;2.50;;;1.13;;